Time;durP1;ratioP1;P1;durP2;ratioP2;P2;SDS_P1;SDS_P2;PMS_P1;PMS_P2;Temp;Humidity;BMP_temperature;BMP_pressure;BME280_temperature;BME280_humidity;BME280_pressure;Samples;Min_cycle;Max_cycle;Signal;HPM_P1;HPM_P2
2023/04/22 00:00:15;;;;;;;12.00;10.32;;;10.50;99.90;;;;;;4965322;28;20058;-69
2023/04/22 00:02:42;;;;;;;12.55;10.18;;;10.40;99.90;;;;;;4981135;28;20089;-69
2023/04/22 00:05:12;;;;;;;16.45;10.65;;;10.40;99.90;;;;;;4985830;28;20398;-69
2023/04/22 00:07:39;;;;;;;10.75;9.75;;;10.30;99.90;;;;;;4978167;28;20622;-69
2023/04/22 00:10:06;;;;;;;12.65;11.02;;;10.20;99.90;;;;;;4968275;28;20125;-69
2023/04/22 00:12:33;;;;;;;11.10;9.93;;;10.20;99.90;;;;;;4982466;28;20042;-69
2023/04/22 00:14:59;;;;;;;10.95;9.82;;;10.10;99.90;;;;;;4986566;28;20561;-69
2023/04/22 00:17:25;;;;;;;12.02;9.85;;;10.10;99.90;;;;;;4977022;28;20126;-69
2023/04/22 00:19:50;;;;;;;32.58;10.40;;;10.00;99.90;;;;;;4965121;28;20062;-68
2023/04/22 00:22:16;;;;;;;13.85;10.60;;;10.00;99.90;;;;;;4983009;28;20109;-69
2023/04/22 00:24:42;;;;;;;13.40;11.07;;;9.90;99.90;;;;;;4965787;28;20128;-69
2023/04/22 00:27:08;;;;;;;12.75;10.43;;;9.80;99.90;;;;;;4985900;28;20042;-69
2023/04/22 00:29:34;;;;;;;12.98;11.10;;;9.80;99.90;;;;;;4983972;28;20122;-69
2023/04/22 00:31:59;;;;;;;14.43;12.00;;;9.70;99.90;;;;;;4963235;28;20054;-69
2023/04/22 00:34:25;;;;;;;12.55;9.98;;;9.70;99.90;;;;;;4968770;28;20101;-69
2023/04/22 00:36:51;;;;;;;12.35;11.13;;;9.60;99.90;;;;;;4979319;28;20042;-69
2023/04/22 00:39:17;;;;;;;13.68;11.85;;;9.60;99.90;;;;;;4983286;28;20141;-69
2023/04/22 00:41:42;;;;;;;14.15;12.18;;;9.60;99.90;;;;;;4963102;28;20560;-69
2023/04/22 00:44:10;;;;;;;12.20;10.90;;;9.50;99.90;;;;;;4965324;28;20043;-69
2023/04/22 00:46:39;;;;;;;13.32;11.93;;;9.50;99.90;;;;;;4961216;28;20487;-69
2023/04/22 00:49:06;;;;;;;14.32;12.07;;;9.50;99.90;;;;;;4967419;28;20088;-69
2023/04/22 00:51:32;;;;;;;17.00;12.40;;;9.50;99.90;;;;;;4983671;28;20046;-69
2023/04/22 00:54:00;;;;;;;13.43;11.95;;;9.40;99.90;;;;;;4964807;28;20386;-69
2023/04/22 00:56:27;;;;;;;18.20;13.13;;;9.50;99.90;;;;;;4976476;28;20407;-69
2023/04/22 00:58:54;;;;;;;13.75;12.30;;;9.50;99.90;;;;;;4963977;28;20047;-69
2023/04/22 01:01:20;;;;;;;15.75;13.30;;;9.50;99.90;;;;;;4964126;28;20497;-69
2023/04/22 01:03:49;;;;;;;14.77;13.20;;;9.40;99.90;;;;;;4969954;28;20035;-69
2023/04/22 01:06:21;;;;;;;15.30;13.68;;;9.40;99.90;;;;;;4984779;28;20062;-68
2023/04/22 01:08:47;;;;;;;14.38;12.88;;;9.40;99.90;;;;;;4969191;28;20062;-69
2023/04/22 01:11:13;;;;;;;14.93;13.25;;;9.40;99.90;;;;;;4966989;28;20610;-69
2023/04/22 01:13:38;;;;;;;14.82;13.23;;;9.40;99.90;;;;;;4983676;28;20042;-69
2023/04/22 01:16:07;;;;;;;15.82;14.07;;;9.30;99.90;;;;;;4967642;28;20059;-69
2023/04/22 01:18:36;;;;;;;18.98;14.60;;;9.30;99.90;;;;;;4986172;28;20232;-69
2023/04/22 01:21:02;;;;;;;15.32;13.73;;;9.30;99.90;;;;;;4989349;28;20042;-69
2023/04/22 01:23:28;;;;;;;15.20;13.57;;;9.30;99.90;;;;;;4976858;28;20057;-69
2023/04/22 01:25:54;;;;;;;17.30;14.15;;;9.20;99.90;;;;;;4971058;28;20034;-69
2023/04/22 01:28:22;;;;;;;15.50;13.90;;;9.20;99.90;;;;;;4967913;28;20038;-69
2023/04/22 01:30:48;;;;;;;16.30;14.35;;;9.10;99.90;;;;;;4967665;28;20057;-69
2023/04/22 01:33:15;;;;;;;16.17;14.18;;;9.10;99.90;;;;;;4965849;28;21044;-69
2023/04/22 01:35:41;;;;;;;15.07;13.48;;;9.10;99.90;;;;;;4987576;28;20348;-69
2023/04/22 01:38:08;;;;;;;15.55;13.95;;;9.10;99.90;;;;;;4970704;28;20043;-69
2023/04/22 01:40:34;;;;;;;14.55;12.45;;;9.10;99.90;;;;;;4970489;28;20042;-69
2023/04/22 01:43:00;;;;;;;14.98;13.35;;;9.00;99.90;;;;;;4980956;28;20073;-69
2023/04/22 01:45:26;;;;;;;17.23;13.68;;;9.00;99.90;;;;;;4971319;28;20049;-69
2023/04/22 01:47:53;;;;;;;16.45;13.35;;;8.90;99.90;;;;;;4984809;28;20046;-69
2023/04/22 01:50:19;;;;;;;15.73;13.15;;;8.90;99.90;;;;;;4952083;28;20101;-68
2023/04/22 01:52:45;;;;;;;14.77;12.80;;;8.80;99.90;;;;;;4965533;28;20046;-69
2023/04/22 01:55:10;;;;;;;17.08;14.75;;;8.80;99.90;;;;;;4968663;28;20494;-69
2023/04/22 01:57:36;;;;;;;20.40;15.40;;;8.80;99.90;;;;;;4971096;28;20038;-69
2023/04/22 02:00:04;;;;;;;19.65;15.05;;;8.80;99.90;;;;;;4967906;28;20666;-69
2023/04/22 02:02:30;;;;;;;17.48;15.10;;;8.80;99.90;;;;;;4963888;28;20082;-70
2023/04/22 02:04:56;;;;;;;19.98;16.27;;;8.80;99.90;;;;;;4968803;28;20038;-68
2023/04/22 02:07:21;;;;;;;19.42;16.30;;;8.80;99.90;;;;;;4968699;28;20038;-69
2023/04/22 02:09:49;;;;;;;18.58;16.23;;;8.80;99.90;;;;;;4972599;28;20134;-69
2023/04/22 02:12:15;;;;;;;22.33;17.77;;;8.80;99.90;;;;;;4968914;28;20530;-69
2023/04/22 02:14:40;;;;;;;24.17;18.15;;;8.80;99.90;;;;;;4986867;28;20046;-68
2023/04/22 02:17:06;;;;;;;23.67;17.60;;;8.90;99.90;;;;;;4971413;28;20122;-68
2023/04/22 02:19:32;;;;;;;20.20;17.67;;;8.90;99.90;;;;;;4965382;28;20038;-68
2023/04/22 02:21:58;;;;;;;34.15;19.15;;;8.90;99.90;;;;;;4965505;28;20039;-69
2023/04/22 02:24:23;;;;;;;24.10;18.20;;;8.90;99.90;;;;;;4965121;28;20081;-69
2023/04/22 02:26:49;;;;;;;20.73;16.60;;;8.80;99.90;;;;;;4966936;28;20050;-68
2023/04/22 02:29:15;;;;;;;20.63;16.95;;;8.80;99.90;;;;;;4959846;28;20495;-68
2023/04/22 02:31:41;;;;;;;27.05;16.92;;;8.70;99.90;;;;;;4983957;28;20105;-69
2023/04/22 02:34:06;;;;;;;21.90;16.63;;;8.70;99.90;;;;;;4968801;28;20341;-68
2023/04/22 02:36:33;;;;;;;20.55;16.40;;;8.70;99.90;;;;;;4970908;28;20125;-68
2023/04/22 02:39:03;;;;;;;20.55;16.40;;;8.60;99.90;;;;;;4964115;28;20074;-68
2023/04/22 02:41:29;;;;;;;25.45;18.17;;;8.60;99.90;;;;;;4968100;28;20120;-69
2023/04/22 02:43:54;;;;;;;45.70;16.60;;;8.60;99.90;;;;;;4968995;28;20110;-68
2023/04/22 02:46:20;;;;;;;22.75;16.48;;;8.50;99.90;;;;;;4967946;28;20039;-68
2023/04/22 02:48:46;;;;;;;24.85;17.17;;;8.50;99.90;;;;;;4972173;28;20038;-69
2023/04/22 02:51:11;;;;;;;19.27;16.08;;;8.50;99.90;;;;;;4967394;28;20366;-69
2023/04/22 02:53:37;;;;;;;22.77;17.75;;;8.50;99.90;;;;;;4968435;28;20639;-68
2023/04/22 02:56:04;;;;;;;25.00;18.83;;;8.50;99.90;;;;;;4964917;28;20145;-69
2023/04/22 02:58:30;;;;;;;21.60;17.50;;;8.50;99.90;;;;;;4981263;28;20053;-69
2023/04/22 03:00:56;;;;;;;24.85;18.15;;;8.40;99.90;;;;;;4964420;28;20042;-69
2023/04/22 03:03:22;;;;;;;18.75;16.45;;;8.40;99.90;;;;;;4969509;28;20046;-69
2023/04/22 03:05:48;;;;;;;24.60;17.85;;;8.40;99.90;;;;;;4984065;28;20047;-69
2023/04/22 03:08:14;;;;;;;13.93;11.93;;;8.40;99.90;;;;;;4965328;28;20061;-68
2023/04/22 03:10:39;;;;;;;19.83;15.98;;;8.30;99.90;;;;;;4982271;28;20049;-68
2023/04/22 03:13:05;;;;;;;16.50;14.70;;;8.30;99.90;;;;;;4969974;28;20069;-69
2023/04/22 03:15:31;;;;;;;18.38;14.70;;;8.20;99.90;;;;;;4965405;28;20506;-69
2023/04/22 03:17:56;;;;;;;20.48;15.52;;;8.20;99.90;;;;;;4969371;28;20048;-69
2023/04/22 03:20:22;;;;;;;18.33;14.55;;;8.10;99.90;;;;;;4966948;28;20418;-69
2023/04/22 03:22:48;;;;;;;21.80;16.38;;;8.00;99.90;;;;;;4970105;28;20041;-69
2023/04/22 03:25:14;;;;;;;41.13;18.40;;;8.00;99.90;;;;;;4970241;28;20467;-69
2023/04/22 03:27:39;;;;;;;23.52;13.25;;;8.00;99.90;;;;;;4962623;28;20165;-68
2023/04/22 03:30:06;;;;;;;10.30;9.30;;;7.90;99.90;;;;;;4968868;28;20558;-68
2023/04/22 03:32:32;;;;;;;21.17;14.82;;;7.90;99.90;;;;;;4966544;28;20085;-68
2023/04/22 03:34:57;;;;;;;19.35;15.25;;;7.80;99.90;;;;;;4970558;28;20542;-69
2023/04/22 03:37:23;;;;;;;61.00;16.27;;;7.80;99.90;;;;;;4981245;28;20066;-68
2023/04/22 03:39:49;;;;;;;24.08;15.50;;;7.80;99.90;;;;;;4964407;28;20052;-68
2023/04/22 03:42:14;;;;;;;22.08;16.50;;;7.80;99.90;;;;;;4972151;28;20145;-69
2023/04/22 03:44:40;;;;;;;28.58;17.98;;;7.80;99.90;;;;;;4970847;28;20042;-68
2023/04/22 03:47:06;;;;;;;21.90;16.50;;;7.80;99.90;;;;;;4973638;28;20041;-68
2023/04/22 03:49:32;;;;;;;25.33;18.67;;;7.80;99.90;;;;;;4966476;28;20475;-69
2023/04/22 03:51:57;;;;;;;34.97;19.85;;;7.80;99.90;;;;;;4986858;28;20030;-68
2023/04/22 03:54:26;;;;;;;32.80;18.85;;;7.80;99.90;;;;;;4964638;28;20137;-69
2023/04/22 03:56:52;;;;;;;29.67;17.25;;;7.80;99.90;;;;;;4962831;28;20372;-69
2023/04/22 03:59:17;;;;;;;23.42;15.60;;;7.80;99.90;;;;;;4969543;28;20050;-70
2023/04/22 04:01:46;;;;;;;29.00;16.90;;;7.70;99.90;;;;;;4986100;28;20177;-70
2023/04/22 04:04:12;;;;;;;36.13;18.98;;;7.70;99.90;;;;;;4980204;28;20042;-70
2023/04/22 04:06:37;;;;;;;86.03;23.23;;;7.60;99.90;;;;;;4981692;28;20052;-69
2023/04/22 04:09:04;;;;;;;23.52;16.35;;;7.60;99.90;;;;;;4964734;28;20046;-70
2023/04/22 04:11:30;;;;;;;27.35;17.25;;;7.60;99.90;;;;;;4969383;28;20042;-70
2023/04/22 04:13:55;;;;;;;70.68;24.73;;;7.60;99.90;;;;;;4962028;28;20118;-70
2023/04/22 04:16:21;;;;;;;34.55;19.45;;;7.60;99.90;;;;;;4964159;28;20043;-70
2023/04/22 04:18:51;;;;;;;40.85;19.42;;;7.50;99.90;;;;;;4967608;28;20092;-69
2023/04/22 04:21:17;;;;;;;61.78;23.55;;;7.60;99.90;;;;;;4964096;28;20038;-70
2023/04/22 04:23:43;;;;;;;28.95;18.35;;;7.50;99.90;;;;;;4961753;28;20176;-70
2023/04/22 04:26:08;;;;;;;24.45;19.52;;;7.50;99.90;;;;;;4978889;28;20146;-70
2023/04/22 04:28:34;;;;;;;26.77;21.63;;;7.50;99.90;;;;;;4966544;28;20459;-70
2023/04/22 04:31:04;;;;;;;35.75;23.05;;;7.60;99.90;;;;;;4964546;28;20689;-70
2023/04/22 04:33:33;;;;;;;29.02;21.60;;;7.70;99.90;;;;;;4970619;28;20140;-69
2023/04/22 04:35:58;;;;;;;33.60;23.40;;;7.80;99.90;;;;;;4961796;28;20109;-70
2023/04/22 04:38:25;;;;;;;29.33;22.95;;;7.90;99.90;;;;;;4967899;28;20042;-69
2023/04/22 04:40:52;;;;;;;28.65;22.10;;;7.90;99.90;;;;;;4968172;28;20034;-69
2023/04/22 04:43:18;;;;;;;28.83;23.40;;;7.90;99.90;;;;;;4980883;28;20130;-69
2023/04/22 04:45:45;;;;;;;29.42;21.73;;;7.90;99.90;;;;;;4965266;28;20348;-70
2023/04/22 04:48:15;;;;;;;30.58;22.05;;;7.90;99.90;;;;;;4969794;28;20054;-70
2023/04/22 04:50:44;;;;;;;24.70;21.35;;;8.00;99.90;;;;;;4967280;28;20049;-70
2023/04/22 04:53:10;;;;;;;26.63;21.30;;;8.00;99.90;;;;;;4968639;28;20111;-69
2023/04/22 04:55:37;;;;;;;26.88;21.92;;;8.00;99.90;;;;;;4972296;28;20488;-70
2023/04/22 04:58:03;;;;;;;24.58;20.20;;;8.00;99.90;;;;;;4986507;28;20102;-69
2023/04/22 05:00:28;;;;;;;26.38;20.60;;;8.00;99.90;;;;;;4990201;28;20042;-70
2023/04/22 05:02:54;;;;;;;27.23;21.80;;;8.00;99.90;;;;;;4970065;28;20126;-70
2023/04/22 05:05:20;;;;;;;25.63;20.77;;;8.00;99.90;;;;;;4966670;28;20034;-69
2023/04/22 05:07:46;;;;;;;24.83;20.27;;;8.00;99.90;;;;;;4971836;28;20057;-70
2023/04/22 05:10:11;;;;;;;25.58;21.23;;;8.10;99.90;;;;;;4966700;28;20403;-70
2023/04/22 05:12:37;;;;;;;27.13;21.30;;;8.00;99.90;;;;;;4985121;28;20038;-70
2023/04/22 05:15:04;;;;;;;28.75;20.77;;;8.00;99.90;;;;;;4971642;28;20043;-70
2023/04/22 05:17:30;;;;;;;21.23;18.65;;;8.10;99.90;;;;;;4985476;28;20046;-69
2023/04/22 05:19:56;;;;;;;23.17;18.85;;;8.10;99.90;;;;;;4966860;28;20066;-69
2023/04/22 05:22:22;;;;;;;22.33;19.45;;;8.10;99.90;;;;;;4975814;28;20736;-69
2023/04/22 05:24:48;;;;;;;23.50;20.88;;;8.20;99.90;;;;;;4984442;28;20049;-69
2023/04/22 05:27:13;;;;;;;26.17;21.27;;;8.20;99.90;;;;;;4972205;28;20391;-69
2023/04/22 05:29:39;;;;;;;27.95;21.20;;;8.20;99.90;;;;;;4991666;28;20054;-69
2023/04/22 05:32:07;;;;;;;33.30;23.88;;;8.30;99.90;;;;;;4966781;28;20156;-69
2023/04/22 05:34:33;;;;;;;29.55;23.40;;;8.40;99.90;;;;;;4990866;28;20038;-69
2023/04/22 05:36:58;;;;;;;36.83;25.38;;;8.40;99.90;;;;;;4969150;28;20050;-70
2023/04/22 05:39:25;;;;;;;33.17;24.80;;;8.50;99.90;;;;;;4992879;28;20056;-69
2023/04/22 05:41:50;;;;;;;25.98;23.05;;;8.60;99.90;;;;;;4979695;28;20099;-69
2023/04/22 05:44:16;;;;;;;27.65;24.20;;;8.60;99.90;;;;;;4972297;28;20154;-68
2023/04/22 05:46:42;;;;;;;28.77;23.88;;;8.70;99.90;;;;;;4985203;28;20054;-69
2023/04/22 05:49:07;;;;;;;29.00;25.25;;;8.80;99.90;;;;;;4975810;28;20096;-69
2023/04/22 05:51:33;;;;;;;35.67;26.90;;;8.80;99.90;;;;;;4975888;28;20580;-69
2023/04/22 05:53:59;;;;;;;28.15;24.65;;;8.90;99.90;;;;;;4972833;28;20137;-69
2023/04/22 05:56:25;;;;;;;29.17;24.80;;;9.00;99.90;;;;;;4968500;28;20047;-69
2023/04/22 05:58:50;;;;;;;28.65;24.48;;;9.00;99.90;;;;;;4972258;28;20045;-69
2023/04/22 06:01:16;;;;;;;36.47;28.30;;;9.10;99.90;;;;;;4985336;28;20038;-69
2023/04/22 06:03:42;;;;;;;32.70;26.42;;;9.10;99.90;;;;;;4974141;28;20043;-69
2023/04/22 06:06:07;;;;;;;29.42;25.67;;;9.20;99.90;;;;;;4972790;28;20056;-69
2023/04/22 06:08:33;;;;;;;32.35;25.63;;;9.30;99.90;;;;;;4966120;28;20043;-69
2023/04/22 06:10:59;;;;;;;42.20;29.35;;;9.30;99.90;;;;;;4971304;28;20061;-69
2023/04/22 06:13:25;;;;;;;36.55;27.13;;;9.40;99.90;;;;;;4970908;28;20121;-70
2023/04/22 06:15:51;;;;;;;29.92;26.05;;;9.50;99.90;;;;;;4966855;28;20042;-69
2023/04/22 06:18:16;;;;;;;28.73;25.60;;;9.50;99.90;;;;;;4974851;28;20034;-69
2023/04/22 06:20:42;;;;;;;34.92;28.38;;;9.60;99.90;;;;;;4959359;28;20073;-69
2023/04/22 06:23:08;;;;;;;30.25;25.42;;;9.70;99.90;;;;;;4970909;28;20042;-69
2023/04/22 06:25:34;;;;;;;25.67;22.85;;;9.70;99.90;;;;;;4972545;28;20555;-69
2023/04/22 06:27:59;;;;;;;35.25;27.50;;;9.80;99.90;;;;;;4965702;28;20031;-69
2023/04/22 06:30:26;;;;;;;29.58;26.00;;;9.90;99.90;;;;;;4971805;28;20046;-69
2023/04/22 06:32:53;;;;;;;26.63;23.80;;;10.00;99.90;;;;;;4959099;28;20046;-69
2023/04/22 06:35:20;;;;;;;25.92;23.35;;;10.00;99.90;;;;;;4981019;28;20042;-69
2023/04/22 06:37:47;;;;;;;26.38;23.65;;;10.20;99.90;;;;;;4964424;28;20035;-69
2023/04/22 06:40:13;;;;;;;26.30;23.50;;;10.20;99.90;;;;;;4967651;28;20047;-70
2023/04/22 06:42:40;;;;;;;28.80;25.73;;;10.30;99.90;;;;;;4974679;28;20521;-69
2023/04/22 06:45:08;;;;;;;26.00;23.40;;;10.30;99.90;;;;;;4970892;28;20477;-69
2023/04/22 06:47:34;;;;;;;68.40;61.00;;;10.40;99.90;;;;;;4968893;28;20054;-69
2023/04/22 06:50:01;;;;;;;31.42;27.55;;;10.50;99.90;;;;;;4971861;28;20040;-69
2023/04/22 06:52:26;;;;;;;24.95;22.35;;;10.60;99.90;;;;;;4987160;28;20038;-69
2023/04/22 06:54:52;;;;;;;24.77;21.83;;;10.70;99.90;;;;;;4967237;28;20049;-69
2023/04/22 06:57:18;;;;;;;23.25;20.95;;;10.70;99.90;;;;;;4964528;28;20039;-70
2023/04/22 06:59:43;;;;;;;22.75;20.58;;;10.80;99.90;;;;;;4967884;28;20467;-70
2023/04/22 07:02:09;;;;;;;21.98;19.88;;;10.90;99.90;;;;;;4971812;28;20431;-69
2023/04/22 07:04:35;;;;;;;21.75;19.38;;;10.90;99.90;;;;;;4975164;28;20482;-69
2023/04/22 07:07:01;;;;;;;21.42;19.33;;;10.90;99.90;;;;;;4968184;28;20548;-69
2023/04/22 07:09:27;;;;;;;20.95;18.95;;;11.00;99.90;;;;;;4948602;28;20035;-70
2023/04/22 07:11:53;;;;;;;21.67;19.50;;;11.10;99.90;;;;;;4967808;28;20088;-70
2023/04/22 07:14:19;;;;;;;21.77;19.60;;;11.10;99.90;;;;;;4962255;28;20543;-69
2023/04/22 07:16:45;;;;;;;20.48;18.60;;;11.20;99.90;;;;;;4953507;28;20100;-70
2023/04/22 07:19:11;;;;;;;22.77;17.75;;;11.30;99.90;;;;;;4970477;28;20046;-70
2023/04/22 07:21:37;;;;;;;19.48;17.55;;;11.40;99.90;;;;;;4973577;28;20049;-69
2023/04/22 07:24:03;;;;;;;19.08;17.38;;;11.40;99.90;;;;;;4975247;28;20124;-69
2023/04/22 07:26:30;;;;;;;19.17;17.38;;;11.50;99.90;;;;;;4972541;28;20046;-70
2023/04/22 07:28:56;;;;;;;19.00;17.10;;;11.60;99.90;;;;;;4986148;28;20047;-70
2023/04/22 07:31:22;;;;;;;19.83;17.27;;;11.60;99.90;;;;;;4971960;28;20513;-70
2023/04/22 07:33:48;;;;;;;17.52;15.68;;;11.70;99.90;;;;;;4967640;28;20042;-70
2023/04/22 07:36:14;;;;;;;17.50;15.70;;;11.80;99.90;;;;;;4967163;28;20045;-69
2023/04/22 07:38:39;;;;;;;17.92;16.10;;;11.80;99.90;;;;;;4971122;28;20053;-68
2023/04/22 07:41:05;;;;;;;16.20;14.68;;;11.90;99.90;;;;;;4970675;28;20131;-69
2023/04/22 07:43:31;;;;;;;18.63;16.83;;;11.90;99.90;;;;;;4957761;28;20050;-70
2023/04/22 07:45:57;;;;;;;17.80;16.10;;;12.00;99.90;;;;;;4966600;28;20057;-69
2023/04/22 07:48:22;;;;;;;17.52;15.82;;;12.10;99.90;;;;;;4986702;28;20043;-70
2023/04/22 07:50:48;;;;;;;18.50;16.83;;;12.30;99.90;;;;;;4970781;28;20037;-69
2023/04/22 07:53:16;;;;;;;17.10;15.40;;;12.40;99.90;;;;;;4966644;28;20084;-70
2023/04/22 07:55:42;;;;;;;16.35;14.88;;;12.60;99.90;;;;;;4973688;28;20046;-70
2023/04/22 07:58:07;;;;;;;16.23;14.73;;;12.70;99.90;;;;;;4972688;28;20102;-70
2023/04/22 08:00:34;;;;;;;15.98;14.55;;;13.00;99.90;;;;;;4952582;28;20162;-69
2023/04/22 08:03:01;;;;;;;15.13;13.63;;;13.30;99.90;;;;;;4970574;28;20088;-69
2023/04/22 08:05:27;;;;;;;15.18;13.88;;;13.50;99.90;;;;;;4973710;28;20058;-69
2023/04/22 08:07:52;;;;;;;14.77;13.48;;;13.90;99.90;;;;;;4968816;28;20057;-70
2023/04/22 08:10:18;;;;;;;14.75;13.45;;;14.20;99.90;;;;;;4968623;28;20507;-69
2023/04/22 08:12:44;;;;;;;13.90;12.65;;;14.60;99.90;;;;;;4966565;28;20046;-69
2023/04/22 08:15:11;;;;;;;13.07;11.93;;;14.80;99.90;;;;;;4988944;28;20043;-69
2023/04/22 08:17:36;;;;;;;13.35;12.25;;;15.00;99.90;;;;;;4977596;28;20031;-70
2023/04/22 08:20:03;;;;;;;13.13;11.95;;;15.30;99.90;;;;;;4989322;28;20049;-70
2023/04/22 08:22:30;;;;;;;12.73;11.63;;;15.50;99.90;;;;;;4966376;28;20049;-69
2023/04/22 08:24:56;;;;;;;12.23;11.02;;;15.60;99.90;;;;;;4990417;28;20107;-69
2023/04/22 08:27:22;;;;;;;10.90;9.95;;;15.70;99.90;;;;;;4986960;28;20481;-69
2023/04/22 08:29:48;;;;;;;11.27;10.27;;;16.00;99.90;;;;;;4971627;28;20467;-69
2023/04/22 08:32:14;;;;;;;11.68;10.27;;;16.30;99.90;;;;;;4965810;28;20055;-70
2023/04/22 08:34:40;;;;;;;10.85;9.85;;;16.50;99.90;;;;;;4987957;28;20039;-70
2023/04/22 08:37:06;;;;;;;10.93;9.93;;;16.80;99.90;;;;;;4971772;28;20090;-70
2023/04/22 08:39:32;;;;;;;9.98;9.07;;;17.00;99.90;;;;;;4969799;28;20054;-71
2023/04/22 08:41:58;;;;;;;9.68;8.77;;;17.20;99.90;;;;;;4966880;28;20042;-71
2023/04/22 08:44:24;;;;;;;10.73;9.00;;;17.50;99.90;;;;;;4970246;28;20495;-71
2023/04/22 08:46:51;;;;;;;9.63;8.80;;;17.70;99.90;;;;;;4972912;28;20068;-71
2023/04/22 08:49:17;;;;;;;10.05;9.18;;;17.90;99.90;;;;;;4967721;28;20035;-71
2023/04/22 08:51:44;;;;;;;9.05;8.30;;;18.20;99.90;;;;;;4988685;28;20076;-71
2023/04/22 08:54:12;;;;;;;9.27;8.38;;;18.60;99.90;;;;;;4989202;28;20038;-71
2023/04/22 08:56:43;;;;;;;8.25;7.45;;;19.20;99.90;;;;;;4987128;28;20051;-70
2023/04/22 08:59:10;;;;;;;7.80;7.10;;;19.60;99.90;;;;;;4974082;28;20046;-71
2023/04/22 09:01:38;;;;;;;7.65;6.95;;;20.00;99.90;;;;;;4969551;28;20038;-71
2023/04/22 09:04:05;;;;;;;8.95;8.13;;;20.30;99.90;;;;;;4969844;28;20386;-71
2023/04/22 09:06:32;;;;;;;8.23;7.53;;;20.30;99.90;;;;;;4971208;28;20074;-71
2023/04/22 09:08:59;;;;;;;7.88;7.22;;;20.30;99.90;;;;;;4966562;28;20055;-71
2023/04/22 09:11:29;;;;;;;8.88;7.50;;;20.50;99.90;;;;;;4978913;28;20058;-72
2023/04/22 09:13:55;;;;;;;8.25;7.55;;;20.80;99.90;;;;;;4974149;28;20108;-71
2023/04/22 09:16:21;;;;;;;7.88;7.28;;;21.20;99.90;;;;;;4960225;28;20038;-71
2023/04/22 09:18:46;;;;;;;8.32;7.53;;;21.60;99.90;;;;;;4967090;28;20076;-72
2023/04/22 09:21:35;;;;;;;7.75;7.00;;;22.00;99.90;;;;;;4964548;28;20474;-72
2023/04/22 09:24:01;;;;;;;7.82;7.13;;;22.20;99.90;;;;;;4968844;28;20034;-72
2023/04/22 09:26:27;;;;;;;8.45;7.65;;;22.40;99.90;;;;;;4971339;28;20046;-71
2023/04/22 09:28:57;;;;;;;7.43;6.70;;;22.60;99.90;;;;;;4962897;28;20734;-72
2023/04/22 09:31:23;;;;;;;7.72;7.03;;;22.80;99.90;;;;;;4968920;28;20888;-72
2023/04/22 09:33:56;;;;;;;7.85;7.07;;;22.50;99.90;;;;;;4971126;28;20066;-72
2023/04/22 09:36:26;;;;;;;8.35;7.10;;;21.90;99.90;;;;;;4972550;28;20122;-71
2023/04/22 09:38:56;;;;;;;7.70;7.03;;;21.30;99.90;;;;;;4963340;28;20042;-71
2023/04/22 09:41:35;;;;;;;8.20;7.43;;;20.80;99.90;;;;;;4970124;28;20042;-72
2023/04/22 09:44:03;;;;;;;8.38;7.57;;;20.30;99.90;;;;;;4958398;28;20102;-71
2023/04/22 09:46:30;;;;;;;7.25;6.55;;;20.20;99.90;;;;;;4958161;28;20047;-71
2023/04/22 09:48:58;;;;;;;7.78;7.05;;;20.20;99.90;;;;;;4951990;28;20045;-71
2023/04/22 09:51:24;;;;;;;7.85;7.00;;;20.20;99.90;;;;;;4964865;28;20070;-69
2023/04/22 09:54:07;;;;;;;7.03;6.32;;;20.20;99.90;;;;;;4963342;28;20054;-72
2023/04/22 09:56:52;;;;;;;7.55;6.18;;;20.30;99.90;;;;;;4963934;28;20039;-73
2023/04/22 09:59:27;;;;;;;6.53;5.93;;;20.40;99.90;;;;;;4964460;28;20039;-72
2023/04/22 10:01:58;;;;;;;6.68;5.90;;;20.50;99.90;;;;;;4963450;28;20031;-74
2023/04/22 10:04:24;;;;;;;7.05;6.35;;;20.60;99.90;;;;;;4958931;28;20412;-72
2023/04/22 10:06:52;;;;;;;6.05;5.50;;;20.80;99.90;;;;;;4962601;28;20062;-72
2023/04/22 10:09:19;;;;;;;7.15;6.50;;;20.90;99.90;;;;;;4963988;28;20407;-71
2023/04/22 10:11:46;;;;;;;6.45;5.78;;;21.10;99.90;;;;;;4962577;28;20042;-71
2023/04/22 10:14:15;;;;;;;6.88;6.38;;;21.20;99.90;;;;;;4966457;28;20035;-73
2023/04/22 10:16:44;;;;;;;7.03;5.90;;;21.40;99.90;;;;;;4965119;28;20050;-73
2023/04/22 10:19:15;;;;;;;5.60;5.10;;;21.50;99.90;;;;;;4963622;28;20042;-73
2023/04/22 10:21:43;;;;;;;6.75;6.15;;;21.70;99.90;;;;;;4968697;28;20101;-73
2023/04/22 10:24:16;;;;;;;7.22;5.35;;;21.90;99.90;;;;;;4968082;28;20503;-74
2023/04/22 10:26:47;;;;;;;6.50;5.97;;;22.10;99.90;;;;;;4966159;28;20056;-76
2023/04/22 10:29:18;;;;;;;6.35;5.55;;;22.40;99.90;;;;;;4965556;28;20053;-75
2023/04/22 10:31:57;;;;;;;5.40;4.85;;;22.70;99.90;;;;;;4967848;28;20078;-75
2023/04/22 10:34:23;;;;;;;5.65;5.15;;;22.70;99.90;;;;;;4964559;28;20135;-75
2023/04/22 10:36:52;;;;;;;5.78;5.28;;;22.80;99.90;;;;;;4961440;28;20047;-76
2023/04/22 10:39:20;;;;;;;7.00;6.30;;;22.70;99.90;;;;;;4963474;28;20082;-76
2023/04/22 10:41:51;;;;;;;5.53;5.03;;;22.60;99.90;;;;;;4958636;28;20135;-75
2023/04/22 10:44:19;;;;;;;6.00;5.45;;;22.60;99.90;;;;;;4965862;28;20042;-75
2023/04/22 10:46:56;;;;;;;5.32;4.82;;;22.80;99.90;;;;;;4959775;28;20090;-75
2023/04/22 10:49:23;;;;;;;6.00;5.50;;;23.00;99.90;;;;;;4965299;28;20046;-74
2023/04/22 10:51:54;;;;;;;5.93;5.28;;;23.10;99.90;;;;;;4959649;28;20328;-75
2023/04/22 10:54:26;;;;;;;6.38;5.80;;;23.30;99.90;;;;;;4969479;28;20116;-76
2023/04/22 10:57:03;;;;;;;6.70;6.10;;;23.50;99.90;;;;;;4957252;28;20043;-76
2023/04/22 10:59:30;;;;;;;6.88;6.38;;;23.70;99.90;;;;;;4955272;28;20051;-75
2023/04/22 11:02:04;;;;;;;6.50;5.90;;;23.70;99.90;;;;;;4964295;28;20035;-75
2023/04/22 11:04:31;;;;;;;6.45;5.85;;;23.50;99.90;;;;;;4951906;28;20145;-75
2023/04/22 11:07:14;;;;;;;6.10;5.60;;;23.50;99.90;;;;;;4953719;28;20351;-73
2023/04/22 11:09:42;;;;;;;6.40;5.33;;;23.70;99.40;;;;;;4963338;28;20495;-73
2023/04/22 11:12:38;;;;;;;7.53;5.43;;;23.70;99.90;;;;;;4967716;28;20279;-74
2023/04/22 11:15:07;;;;;;;6.03;5.53;;;23.90;98.80;;;;;;4963744;28;20049;-74
2023/04/22 11:17:34;;;;;;;5.57;5.05;;;23.90;98.70;;;;;;4962220;28;20420;-74
2023/04/22 11:20:01;;;;;;;6.97;6.03;;;24.00;99.90;;;;;;4967125;28;20043;-75
2023/04/22 11:22:27;;;;;;;5.57;5.07;;;24.30;98.20;;;;;;4954998;28;20043;-74
2023/04/22 11:24:57;;;;;;;5.63;5.05;;;24.30;96.80;;;;;;4967990;28;20054;-75
2023/04/22 11:27:29;;;;;;;6.70;5.05;;;24.20;96.90;;;;;;4963702;28;20372;-75
2023/04/22 11:30:07;;;;;;;6.00;4.95;;;24.40;97.20;;;;;;4967125;28;20050;-75
2023/04/22 11:32:34;;;;;;;5.13;4.72;;;24.30;95.90;;;;;;4970773;28;20110;-76
2023/04/22 11:35:07;;;;;;;5.13;4.63;;;24.30;97.20;;;;;;4972087;28;20038;-76
2023/04/22 11:37:47;;;;;;;5.20;4.80;;;24.50;97.60;;;;;;4959793;28;20045;-74
2023/04/22 11:40:20;;;;;;;6.35;5.20;;;24.80;95.80;;;;;;4951582;28;20286;-69
2023/04/22 11:42:47;;;;;;;5.18;4.68;;;25.00;95.80;;;;;;4955055;28;20456;-75
2023/04/22 11:45:13;;;;;;;6.03;4.85;;;25.00;95.30;;;;;;4967860;28;20121;-81
2023/04/22 11:47:40;;;;;;;5.22;4.68;;;25.10;95.20;;;;;;4944996;28;20094;-77
2023/04/22 11:50:09;;;;;;;5.47;4.65;;;25.10;94.40;;;;;;4966951;28;20688;-75
2023/04/22 11:52:49;;;;;;;4.88;4.47;;;25.20;93.30;;;;;;4952949;28;20073;-75
2023/04/22 11:55:37;;;;;;;6.25;5.40;;;25.00;92.20;;;;;;4966069;28;20462;-78
2023/04/22 11:58:11;;;;;;;5.63;5.13;;;24.50;92.00;;;;;;4965213;28;20126;-77
2023/04/22 12:00:49;;;;;;;5.57;5.15;;;24.20;93.00;;;;;;4961662;28;20047;-79
2023/04/22 12:03:16;;;;;;;6.18;5.53;;;23.90;93.50;;;;;;4957967;28;20392;-75
2023/04/22 12:05:43;;;;;;;6.43;5.82;;;23.40;93.40;;;;;;4963387;28;20054;-77
2023/04/22 12:08:13;;;;;;;6.43;5.82;;;23.00;94.70;;;;;;4970646;28;20120;-77
2023/04/22 12:10:53;;;;;;;6.28;5.68;;;22.70;95.10;;;;;;4943969;28;20468;-76
2023/04/22 12:13:54;;;;;;;5.95;5.35;;;22.60;95.60;;;;;;4949711;28;20049;-79
2023/04/22 12:16:20;;;;;;;6.55;5.90;;;22.50;96.80;;;;;;4914680;28;20200;-75
2023/04/22 12:18:50;;;;;;;6.60;6.00;;;22.60;96.60;;;;;;4964536;28;20047;-74
2023/04/22 12:21:19;;;;;;;6.47;5.82;;;22.70;96.20;;;;;;4964757;28;20097;-71
2023/04/22 12:23:47;;;;;;;5.53;5.13;;;23.00;95.70;;;;;;4964190;28;20558;-75
2023/04/22 12:26:17;;;;;;;6.72;6.03;;;23.50;94.60;;;;;;4962721;28;20042;-73
2023/04/22 12:28:44;;;;;;;7.38;5.68;;;23.90;94.70;;;;;;4958143;28;20098;-76
2023/04/22 12:31:11;;;;;;;7.10;6.50;;;24.10;94.70;;;;;;4963270;28;20050;-72
2023/04/22 12:33:37;;;;;;;7.18;6.47;;;24.00;93.40;;;;;;4951853;28;20096;-73
2023/04/22 12:36:04;;;;;;;7.18;6.57;;;23.50;93.90;;;;;;4954002;28;20039;-73
2023/04/22 12:38:30;;;;;;;6.97;6.15;;;23.00;94.70;;;;;;4956725;28;20061;-75